createdAt,value
2019-05-18T00:01:47.951Z,10.03
2019-05-18T00:04:17.292Z,7.45
2019-05-18T00:06:46.280Z,7.08
2019-05-18T00:09:15.280Z,7.65
2019-05-18T00:11:44.248Z,7.00
2019-05-18T00:14:13.261Z,8.58
2019-05-18T00:16:42.339Z,6.87
2019-05-18T00:19:11.339Z,7.55
2019-05-18T00:21:40.339Z,7.75
2019-05-18T00:24:09.434Z,8.08
2019-05-18T00:26:38.444Z,8.30
2019-05-18T00:29:07.516Z,8.20
2019-05-18T00:31:36.624Z,9.10
2019-05-18T00:34:05.505Z,6.45
2019-05-18T00:36:34.394Z,7.87
2019-05-18T00:39:05.055Z,7.87
2019-05-18T00:41:33.958Z,8.45
2019-05-18T00:44:03.015Z,7.58
2019-05-18T00:46:32.006Z,8.78
2019-05-18T00:49:00.885Z,7.40
2019-05-18T00:51:29.896Z,6.80
2019-05-18T00:53:59.292Z,7.28
2019-05-18T00:56:28.166Z,7.50
2019-05-18T00:58:57.065Z,7.37
2019-05-18T01:01:26.316Z,7.58
2019-05-18T01:03:55.387Z,8.10
2019-05-18T01:06:24.485Z,7.03
2019-05-18T01:08:53.565Z,9.65
2019-05-18T01:11:22.666Z,7.55
2019-05-18T01:13:51.765Z,8.35
2019-05-18T01:16:20.690Z,7.30
2019-05-18T01:18:50.165Z,7.47
2019-05-18T01:21:19.246Z,7.17
2019-05-18T01:23:48.344Z,7.58
2019-05-18T01:26:17.445Z,8.48
2019-05-18T01:28:46.545Z,10.63
2019-05-18T01:31:15.617Z,7.97
2019-05-18T01:33:44.540Z,8.55
2019-05-18T01:36:13.746Z,8.53
2019-05-18T01:38:42.827Z,7.08
2019-05-18T01:41:12.855Z,8.05
2019-05-18T01:43:42.016Z,9.88
2019-05-18T01:46:11.326Z,9.78
2019-05-18T01:48:40.329Z,9.03
2019-05-18T01:51:09.304Z,7.83
2019-05-18T01:53:38.611Z,9.33
2019-05-18T01:56:07.605Z,8.38
2019-05-18T01:58:36.586Z,7.20
2019-05-18T02:01:06.105Z,8.20
2019-05-18T02:03:35.313Z,8.83
2019-05-18T02:06:04.406Z,7.92
2019-05-18T02:08:33.448Z,8.88
2019-05-18T02:11:02.492Z,8.25
2019-05-18T02:13:31.586Z,8.10
2019-05-18T02:16:00.686Z,9.03
2019-05-18T02:18:29.885Z,8.65
2019-05-18T02:20:58.984Z,8.50
2019-05-18T02:23:28.067Z,7.92
2019-05-18T02:25:57.183Z,9.50
2019-05-18T02:28:26.241Z,9.60
2019-05-18T02:30:55.333Z,10.23
2019-05-18T02:33:24.453Z,11.28
2019-05-18T02:35:53.662Z,8.45
2019-05-18T02:38:22.746Z,9.20
2019-05-18T02:40:51.947Z,11.57
2019-05-18T02:43:21.823Z,10.98
2019-05-18T02:45:51.359Z,8.43
2019-05-18T02:48:20.460Z,10.70
2019-05-18T02:50:49.555Z,9.85
2019-05-18T02:53:18.546Z,8.30
2019-05-18T02:55:47.625Z,9.53
2019-05-18T02:58:16.761Z,11.12
2019-05-18T03:00:45.826Z,10.13
2019-05-18T03:03:14.909Z,8.75
2019-05-18T03:05:45.097Z,10.15
2019-05-18T03:08:14.210Z,9.45
2019-05-18T03:10:43.253Z,9.95
2019-05-18T03:13:12.238Z,10.18
2019-05-18T03:15:41.526Z,8.95
2019-05-18T03:18:10.498Z,8.88
2019-05-18T03:20:39.626Z,10.23
2019-05-18T03:23:08.942Z,10.03
2019-05-18T03:25:38.005Z,9.05
2019-05-18T03:28:06.994Z,9.00
2019-05-18T03:30:36.206Z,10.50
2019-05-18T03:33:05.609Z,10.30
2019-05-18T03:35:35.206Z,9.38
2019-05-18T03:38:04.405Z,8.90
2019-05-18T03:40:33.506Z,8.83
2019-05-18T03:43:02.922Z,9.63
2019-05-18T03:45:31.904Z,9.15
2019-05-18T03:48:00.906Z,10.10
2019-05-18T03:50:29.986Z,9.53
2019-05-18T03:52:59.074Z,10.32
2019-05-18T03:55:28.168Z,8.50
2019-05-18T03:57:57.068Z,8.25
2019-05-18T04:00:26.187Z,8.08
2019-05-18T04:02:55.147Z,9.18
2019-05-18T04:05:24.261Z,9.70
2019-05-18T04:07:53.360Z,8.15
2019-05-18T04:10:25.925Z,9.85
2019-05-18T04:12:55.015Z,9.78
2019-05-18T04:15:23.987Z,10.98
2019-05-18T04:17:52.980Z,9.53
2019-05-18T04:20:22.210Z,9.43
2019-05-18T04:22:51.305Z,9.48
2019-05-18T04:25:20.481Z,10.88
2019-05-18T04:27:49.485Z,10.65
2019-05-18T04:30:18.784Z,11.20
2019-05-18T04:32:47.883Z,12.15
2019-05-18T04:35:16.969Z,10.78
2019-05-18T04:37:46.275Z,10.23
2019-05-18T04:40:15.347Z,11.75
2019-05-18T04:42:44.232Z,11.33
2019-05-18T04:45:13.705Z,10.65
2019-05-18T04:47:42.646Z,9.88
2019-05-18T04:50:11.653Z,8.40
2019-05-18T04:52:40.746Z,10.35
2019-05-18T04:55:09.734Z,9.50
2019-05-18T04:57:38.741Z,10.75
2019-05-18T05:00:08.665Z,10.60
2019-05-18T05:02:37.750Z,10.00
2019-05-18T05:05:09.471Z,11.45
2019-05-18T05:07:38.488Z,10.75
2019-05-18T05:10:08.147Z,9.70
2019-05-18T05:12:36.983Z,10.48
2019-05-18T05:15:06.591Z,12.28
2019-05-18T05:17:35.484Z,11.00
2019-05-18T05:20:18.734Z,11.95
2019-05-18T05:22:36.765Z,11.63
2019-05-18T05:25:06.153Z,10.40
2019-05-18T05:27:35.136Z,13.10
2019-05-18T05:30:06.498Z,10.90
2019-05-18T05:32:37.007Z,11.93
2019-05-18T05:35:07.233Z,12.73
2019-05-18T05:37:36.345Z,12.45
2019-05-18T05:40:06.994Z,12.45
2019-05-18T05:42:36.263Z,10.53
2019-05-18T05:45:07.367Z,10.70
2019-05-18T05:47:36.508Z,12.35
2019-05-18T05:50:07.668Z,11.95
2019-05-18T05:52:36.639Z,12.80
2019-05-18T05:55:07.589Z,11.53
2019-05-18T05:57:36.573Z,11.10
2019-05-18T06:00:09.774Z,11.53
2019-05-18T06:02:38.771Z,10.72
2019-05-18T06:05:09.242Z,11.10
2019-05-18T06:07:38.177Z,12.75
2019-05-18T06:10:08.397Z,11.43
2019-05-18T06:12:37.417Z,13.75
2019-05-18T06:15:09.705Z,10.90
2019-05-18T06:17:39.076Z,14.53
2019-05-18T06:20:08.722Z,16.57
2019-05-18T06:22:37.981Z,14.07
2019-05-18T06:25:07.791Z,12.03
2019-05-18T06:27:37.001Z,11.85
2019-05-18T06:30:06.483Z,12.70
2019-05-18T06:32:35.506Z,12.37
2019-05-18T06:35:05.544Z,11.08
2019-05-18T06:37:35.383Z,11.75
2019-05-18T06:40:06.658Z,15.05
2019-05-18T06:42:35.508Z,11.80
2019-05-18T06:45:07.009Z,10.95
2019-05-18T06:47:36.089Z,12.33
2019-05-18T06:50:11.791Z,11.12
2019-05-18T06:52:39.322Z,10.53
2019-05-18T06:55:08.502Z,11.20
2019-05-18T06:57:37.996Z,12.03
2019-05-18T07:00:09.464Z,11.43
2019-05-18T07:02:38.568Z,12.73
2019-05-18T07:05:07.948Z,11.43
2019-05-18T07:07:37.061Z,12.28
2019-05-18T07:10:07.895Z,13.48
2019-05-18T07:12:36.995Z,12.05
2019-05-18T07:15:07.935Z,13.08
2019-05-18T07:17:36.909Z,12.20
2019-05-18T07:20:06.531Z,12.98
2019-05-18T07:22:35.824Z,12.20
2019-05-18T07:25:06.826Z,13.40
2019-05-18T07:27:36.398Z,14.33
2019-05-18T07:30:07.615Z,13.98
2019-05-18T07:32:36.715Z,12.75
2019-05-18T07:35:08.066Z,13.95
2019-05-18T07:37:37.150Z,11.97
2019-05-18T07:40:07.792Z,11.83
2019-05-18T07:42:36.766Z,11.73
2019-05-18T07:45:10.279Z,12.58
2019-05-18T07:47:39.384Z,13.15
2019-05-18T07:50:09.857Z,12.80
2019-05-18T07:52:38.996Z,12.43
2019-05-18T07:55:08.104Z,12.13
2019-05-18T07:57:37.189Z,13.15
2019-05-18T08:00:08.242Z,12.07
2019-05-18T08:02:37.334Z,13.15
2019-05-18T08:05:07.375Z,10.35
2019-05-18T08:07:36.545Z,16.45
2019-05-18T08:10:10.967Z,16.12
2019-05-18T08:12:40.066Z,12.28
2019-05-18T08:15:10.058Z,12.88
2019-05-18T08:17:39.188Z,16.80
2019-05-18T08:20:08.654Z,16.00
2019-05-18T08:22:37.771Z,14.28
2019-05-18T08:25:08.294Z,14.58
2019-05-18T08:27:37.192Z,16.07
2019-05-18T08:30:07.257Z,12.75
2019-05-18T08:32:36.430Z,16.35
2019-05-18T08:35:06.730Z,13.98
2019-05-18T08:37:35.727Z,16.23
2019-05-18T08:40:07.814Z,14.45
2019-05-18T08:42:37.967Z,14.53
2019-05-18T08:45:09.444Z,12.68
2019-05-18T08:47:38.450Z,12.15
2019-05-18T08:50:08.440Z,12.55
2019-05-18T08:52:37.460Z,15.03
2019-05-18T08:55:07.060Z,12.80
2019-05-18T08:57:38.315Z,10.18
2019-05-18T09:00:07.864Z,11.03
2019-05-18T09:02:36.914Z,11.50
2019-05-18T09:05:07.526Z,12.95
2019-05-18T09:07:39.015Z,11.80
2019-05-18T09:10:08.500Z,13.50
2019-05-18T09:12:37.705Z,11.95
2019-05-18T09:15:07.537Z,13.00
2019-05-18T09:17:36.613Z,12.45
2019-05-18T09:20:07.054Z,14.90
2019-05-18T09:22:36.030Z,15.18
2019-05-18T09:25:06.996Z,12.93
2019-05-18T09:27:36.191Z,11.35
2019-05-18T09:30:07.146Z,11.33
2019-05-18T09:32:36.348Z,15.28
2019-05-18T09:35:09.808Z,13.65
2019-05-18T09:37:38.899Z,11.22
2019-05-18T09:40:09.118Z,11.10
2019-05-18T09:42:38.209Z,14.00
2019-05-18T09:45:09.669Z,12.82
2019-05-18T09:47:38.765Z,10.78
2019-05-18T09:50:08.178Z,11.93
2019-05-18T09:52:45.071Z,13.35
2019-05-18T09:55:08.595Z,12.37
2019-05-18T09:57:37.713Z,12.45
2019-05-18T10:00:08.745Z,12.15
2019-05-18T10:02:37.834Z,9.60
2019-05-18T10:05:07.125Z,8.73
2019-05-18T10:07:36.124Z,13.22
2019-05-18T10:10:08.390Z,10.08
2019-05-18T10:12:37.597Z,9.55
2019-05-18T10:15:08.531Z,12.98
2019-05-18T10:17:37.539Z,12.55
2019-05-18T10:20:08.039Z,11.65
2019-05-18T10:22:36.939Z,14.65
2019-05-18T10:25:06.857Z,14.23
2019-05-18T10:27:35.959Z,14.13
2019-05-18T10:30:06.342Z,12.37
2019-05-18T10:32:35.270Z,15.55
2019-05-18T10:35:05.802Z,17.73
2019-05-18T10:37:34.694Z,20.68
2019-05-18T10:40:05.856Z,13.93
2019-05-18T10:42:35.053Z,18.23
2019-05-18T10:45:05.064Z,12.35
2019-05-18T10:47:34.277Z,11.10
2019-05-18T10:50:03.341Z,12.65
2019-05-18T10:52:32.453Z,13.13
2019-05-18T10:55:01.548Z,12.43
2019-05-18T10:57:32.364Z,15.23
2019-05-18T11:00:01.464Z,12.68
2019-05-18T11:02:30.448Z,14.75
2019-05-18T11:04:59.458Z,12.37
2019-05-18T11:07:29.053Z,9.23
2019-05-18T11:09:58.369Z,12.90
2019-05-18T11:12:27.564Z,9.58
2019-05-18T11:14:56.649Z,12.70
2019-05-18T11:17:25.652Z,8.50
2019-05-18T11:19:54.849Z,8.35
2019-05-18T11:22:23.841Z,9.88
2019-05-18T11:24:52.829Z,10.58
2019-05-18T11:27:21.929Z,9.78
2019-05-18T11:29:50.919Z,8.98
2019-05-18T11:32:20.026Z,7.08
2019-05-18T11:34:51.164Z,10.15
2019-05-18T11:37:20.274Z,9.20
2019-05-18T11:39:49.255Z,10.13
2019-05-18T11:42:18.441Z,8.25
2019-05-18T11:44:47.544Z,11.22
2019-05-18T11:47:16.844Z,10.45
2019-05-18T11:49:45.927Z,10.78
2019-05-18T11:52:14.914Z,10.15
2019-05-18T11:54:43.924Z,10.45
2019-05-18T11:57:13.183Z,9.53
2019-05-18T11:59:42.319Z,8.23
2019-05-18T12:02:11.406Z,9.53
2019-05-18T12:04:41.963Z,7.90
2019-05-18T12:07:12.054Z,7.72
2019-05-18T12:09:40.954Z,10.60
2019-05-18T12:12:10.049Z,9.85
2019-05-18T12:14:39.139Z,9.78
2019-05-18T12:17:08.139Z,10.55
2019-05-18T12:19:37.218Z,10.78
2019-05-18T12:22:06.618Z,10.05
2019-05-18T12:24:35.638Z,11.85
2019-05-18T12:27:04.934Z,12.00
2019-05-18T12:29:34.034Z,10.28
2019-05-18T12:32:03.004Z,8.40
2019-05-18T12:34:32.232Z,11.83
2019-05-18T12:37:01.314Z,9.90
2019-05-18T12:39:30.409Z,9.70
2019-05-18T12:41:59.388Z,9.18
2019-05-18T12:44:28.495Z,8.63
2019-05-18T12:46:57.487Z,7.78
2019-05-18T12:49:26.785Z,9.28
2019-05-18T12:51:57.026Z,9.03
2019-05-18T12:54:31.021Z,9.68
2019-05-18T12:56:57.970Z,8.80
2019-05-18T12:59:27.178Z,9.20
2019-05-18T13:01:56.026Z,10.13
2019-05-18T13:04:25.238Z,7.05
2019-05-18T13:06:54.127Z,8.58
2019-05-18T13:09:23.791Z,7.53
2019-05-18T13:11:53.149Z,8.68
2019-05-18T13:14:22.129Z,7.85
2019-05-18T13:16:51.244Z,10.10
2019-05-18T13:19:20.335Z,8.55
2019-05-18T13:21:49.542Z,8.40
2019-05-18T13:24:18.735Z,9.08
2019-05-18T13:26:47.934Z,10.03
2019-05-18T13:29:16.913Z,7.80
2019-05-18T13:31:47.745Z,8.40
2019-05-18T13:34:17.502Z,8.03
2019-05-18T13:36:46.571Z,6.70
2019-05-18T13:39:15.569Z,7.83
2019-05-18T13:41:44.859Z,8.38
2019-05-18T13:44:13.875Z,8.95
2019-05-18T13:46:42.736Z,7.97
2019-05-18T13:49:11.939Z,8.28
2019-05-18T13:51:41.026Z,8.43
2019-05-18T13:54:10.124Z,8.18
2019-05-18T13:56:39.956Z,8.00
2019-05-18T13:59:09.229Z,6.90
2019-05-18T14:01:38.340Z,7.22
2019-05-18T14:04:07.548Z,7.15
2019-05-18T14:06:36.527Z,7.47
2019-05-18T14:09:06.630Z,6.15
2019-05-18T14:11:35.844Z,6.60
2019-05-18T14:14:05.101Z,7.10
2019-05-18T14:16:34.132Z,7.85
2019-05-18T14:19:03.506Z,6.60
2019-05-18T14:21:32.635Z,7.22
2019-05-18T14:24:01.628Z,6.90
2019-05-18T14:26:30.721Z,6.50
2019-05-18T14:28:59.704Z,9.10
2019-05-18T14:31:28.714Z,7.08
2019-05-18T14:33:58.016Z,6.40
2019-05-18T14:36:26.895Z,8.95
2019-05-18T14:38:56.891Z,6.58
2019-05-18T14:41:26.229Z,7.58
2019-05-18T14:43:55.309Z,6.20
2019-05-18T14:46:24.289Z,6.20
2019-05-18T14:48:53.610Z,7.08
2019-05-18T14:51:23.110Z,6.03
2019-05-18T14:53:53.138Z,5.85
2019-05-18T14:56:22.839Z,6.30
2019-05-18T14:58:51.930Z,6.78
2019-05-18T15:01:20.936Z,5.30
2019-05-18T15:03:50.326Z,5.65
2019-05-18T15:06:20.850Z,5.37
2019-05-18T15:08:49.743Z,7.35
2019-05-18T15:11:19.051Z,5.85
2019-05-18T15:13:47.932Z,6.05
2019-05-18T15:16:16.902Z,5.53
2019-05-18T15:18:46.024Z,4.92
2019-05-18T15:21:14.919Z,4.33
2019-05-18T15:23:43.915Z,4.55
2019-05-18T15:26:13.139Z,6.30
2019-05-18T15:28:42.396Z,6.33
2019-05-18T15:31:11.402Z,7.25
2019-05-18T15:33:40.408Z,7.55
2019-05-18T15:36:09.599Z,8.70
2019-05-18T15:38:38.483Z,9.28
2019-05-18T15:41:09.119Z,11.28
2019-05-18T15:43:38.138Z,9.33
2019-05-18T15:46:07.091Z,9.28
2019-05-18T15:48:36.320Z,9.65
2019-05-18T15:51:05.391Z,7.53
2019-05-18T15:53:34.385Z,8.60
2019-05-18T15:56:06.277Z,8.65
2019-05-18T15:58:33.983Z,8.48
2019-05-18T16:01:02.990Z,9.73
2019-05-18T16:03:32.004Z,9.33
2019-05-18T16:06:01.194Z,9.50
2019-05-18T16:08:30.055Z,10.80
2019-05-18T16:10:59.200Z,10.58
2019-05-18T16:13:28.075Z,8.58
2019-05-18T16:15:57.160Z,10.30
2019-05-18T16:18:26.668Z,8.45
2019-05-18T16:20:55.685Z,8.40
2019-05-18T16:23:24.566Z,9.18
2019-05-18T16:25:53.405Z,8.65
2019-05-18T16:28:22.286Z,8.38
2019-05-18T16:30:51.067Z,8.68
2019-05-18T16:33:19.932Z,7.67
2019-05-18T16:35:48.984Z,7.50
2019-05-18T16:38:20.537Z,8.28
2019-05-18T16:40:58.361Z,7.80
2019-05-18T16:43:30.780Z,8.25
2019-05-18T16:46:00.960Z,9.30
2019-05-18T16:48:31.452Z,8.05
2019-05-18T16:51:03.384Z,8.50
2019-05-18T16:53:32.422Z,7.83
2019-05-18T16:56:01.414Z,7.95
2019-05-18T16:58:30.192Z,7.75
2019-05-18T17:00:59.597Z,8.95
2019-05-18T17:03:28.813Z,8.93
2019-05-18T17:05:58.834Z,8.25
2019-05-18T17:08:28.224Z,8.70
2019-05-18T17:10:57.319Z,7.80
2019-05-18T17:13:26.319Z,9.33
2019-05-18T17:15:55.317Z,8.23
2019-05-18T17:18:24.299Z,7.55
2019-05-18T17:20:53.407Z,7.87
2019-05-18T17:23:22.491Z,8.60
2019-05-18T17:25:51.777Z,7.20
2019-05-18T17:28:20.771Z,8.00
2019-05-18T17:30:49.670Z,6.67
2019-05-18T17:33:18.971Z,7.78
2019-05-18T17:36:00.055Z,7.33
2019-05-18T17:38:18.642Z,6.55
2019-05-18T17:40:47.794Z,8.43
2019-05-18T17:43:16.895Z,11.30
2019-05-18T17:45:45.994Z,12.05
2019-05-18T17:48:15.187Z,11.30
2019-05-18T17:50:44.162Z,12.13
2019-05-18T17:53:13.272Z,16.00
2019-05-18T17:55:42.471Z,17.17
2019-05-18T17:58:11.557Z,17.55
2019-05-18T18:00:40.674Z,18.27
2019-05-18T18:03:09.854Z,17.57
2019-05-18T18:05:38.959Z,19.82
2019-05-18T18:08:07.839Z,21.20
2019-05-18T18:10:37.049Z,17.98
2019-05-18T18:13:09.005Z,19.90
2019-05-18T18:15:36.669Z,20.45
2019-05-18T18:18:05.647Z,18.73
2019-05-18T18:20:34.792Z,19.10
2019-05-18T18:23:04.163Z,18.48
2019-05-18T18:25:33.240Z,20.90
2019-05-18T18:28:02.132Z,19.42
2019-05-18T18:30:31.136Z,21.20
2019-05-18T18:33:00.319Z,18.52
2019-05-18T18:35:29.422Z,19.80
2019-05-18T18:37:59.444Z,19.00
2019-05-18T18:40:28.645Z,18.10
2019-05-18T18:42:57.745Z,21.40
2019-05-18T18:45:26.835Z,20.68
2019-05-18T18:47:56.034Z,19.57
2019-05-18T18:50:24.885Z,20.82
2019-05-18T18:52:53.687Z,24.60
2019-05-18T18:55:22.632Z,25.35
2019-05-18T18:57:51.484Z,26.25
2019-05-18T19:00:21.346Z,22.13
2019-05-18T19:02:50.317Z,20.10
2019-05-18T19:05:19.278Z,22.58
2019-05-18T19:07:48.150Z,19.67
2019-05-18T19:10:17.189Z,18.48
2019-05-18T19:12:46.043Z,18.48
2019-05-18T19:15:16.850Z,21.15
2019-05-18T19:17:45.690Z,18.27
2019-05-18T19:20:14.498Z,25.05
2019-05-18T19:22:44.145Z,21.75
2019-05-18T19:25:15.060Z,19.37
2019-05-18T19:27:54.636Z,19.12
2019-05-18T19:30:15.052Z,21.20
2019-05-18T19:32:43.959Z,20.35
2019-05-18T19:35:14.314Z,21.50
2019-05-18T19:37:43.175Z,19.42
2019-05-18T19:40:14.005Z,17.60
2019-05-18T19:42:42.804Z,18.87
2019-05-18T19:45:12.189Z,18.92
2019-05-18T19:47:42.218Z,18.50
2019-05-18T19:50:11.547Z,21.23
2019-05-18T19:52:40.399Z,18.27
2019-05-18T19:55:09.540Z,22.30
2019-05-18T19:57:38.439Z,21.73
2019-05-18T20:00:08.248Z,21.27
2019-05-18T20:02:37.523Z,20.95
2019-05-18T20:05:09.176Z,20.02
2019-05-18T20:07:38.764Z,22.80
2019-05-18T20:10:08.569Z,20.02
2019-05-18T20:12:37.660Z,21.75
2019-05-18T20:15:09.595Z,23.18
2019-05-18T20:17:38.845Z,22.20
2019-05-18T20:20:08.184Z,23.20
2019-05-18T20:22:37.338Z,23.70
2019-05-18T20:25:06.614Z,23.85
2019-05-18T20:27:35.723Z,23.55
2019-05-18T20:30:06.375Z,20.30
2019-05-18T20:32:35.545Z,25.17
2019-05-18T20:35:04.719Z,25.43
2019-05-18T20:37:33.596Z,22.35
2019-05-18T20:40:04.116Z,24.87
2019-05-18T20:42:32.968Z,22.42
2019-05-18T20:45:01.856Z,23.38
2019-05-18T20:47:31.034Z,21.23
2019-05-18T20:49:59.920Z,22.73
2019-05-18T20:52:28.797Z,20.68
2019-05-18T20:54:57.778Z,24.40
2019-05-18T20:57:26.630Z,23.30
2019-05-18T20:59:55.569Z,23.27
2019-05-18T21:02:24.504Z,21.02
2019-05-18T21:04:53.488Z,22.30
2019-05-18T21:07:22.349Z,21.68
2019-05-18T21:09:51.560Z,21.15
2019-05-18T21:12:20.442Z,22.95
2019-05-18T21:14:49.344Z,21.97
2019-05-18T21:17:18.304Z,22.90
2019-05-18T21:19:47.164Z,18.67
2019-05-18T21:22:16.001Z,24.40
2019-05-18T21:24:44.927Z,24.00
2019-05-18T21:27:13.796Z,21.60
2019-05-18T21:29:42.824Z,24.27
2019-05-18T21:32:11.741Z,21.77
2019-05-18T21:34:40.534Z,21.85
2019-05-18T21:37:09.304Z,22.30
2019-05-18T21:39:38.318Z,22.32
2019-05-18T21:42:07.187Z,22.30
2019-05-18T21:44:36.126Z,23.73
2019-05-18T21:47:05.012Z,23.70
2019-05-18T21:49:33.918Z,23.10
2019-05-18T21:52:02.787Z,19.92
2019-05-18T21:54:31.829Z,28.23
2019-05-18T21:57:00.732Z,22.82
2019-05-18T21:59:29.624Z,22.58
2019-05-18T22:01:58.479Z,22.48
2019-05-18T22:04:27.370Z,24.57
2019-05-18T22:06:56.303Z,22.82
2019-05-18T22:09:25.263Z,22.20
2019-05-18T22:11:54.134Z,22.30
2019-05-18T22:14:23.023Z,22.25
2019-05-18T22:16:51.923Z,22.05
2019-05-18T22:19:20.804Z,23.90
2019-05-18T22:21:49.643Z,22.13
2019-05-18T22:24:18.616Z,21.75
2019-05-18T22:26:47.485Z,25.17
2019-05-18T22:29:16.347Z,25.10
2019-05-18T22:31:45.178Z,23.12
2019-05-18T22:34:14.015Z,23.22
2019-05-18T22:36:42.921Z,24.75
2019-05-18T22:39:11.844Z,24.07
2019-05-18T22:41:40.755Z,22.27
2019-05-18T22:44:09.688Z,24.57
2019-05-18T22:46:38.649Z,23.02
2019-05-18T22:49:07.564Z,23.67
2019-05-18T22:51:36.488Z,27.42
2019-05-18T22:54:05.502Z,24.27
2019-05-18T22:56:34.380Z,22.73
2019-05-18T22:59:03.240Z,23.45
2019-05-18T23:01:32.697Z,21.10
2019-05-18T23:04:01.491Z,22.98
2019-05-18T23:06:30.388Z,23.15
2019-05-18T23:08:59.322Z,23.05
2019-05-18T23:11:28.172Z,23.40
2019-05-18T23:13:57.055Z,23.83
2019-05-18T23:16:26.040Z,25.23
2019-05-18T23:18:57.068Z,24.02
2019-05-18T23:21:25.325Z,24.65
2019-05-18T23:23:54.236Z,21.70
2019-05-18T23:26:23.095Z,26.87
2019-05-18T23:28:51.959Z,22.25
2019-05-18T23:31:20.886Z,24.37
2019-05-18T23:33:49.816Z,25.02
2019-05-18T23:36:18.609Z,23.45
2019-05-18T23:38:47.511Z,26.68
2019-05-18T23:41:16.308Z,28.38
2019-05-18T23:43:45.226Z,28.92
2019-05-18T23:46:14.227Z,28.25
2019-05-18T23:48:43.080Z,25.57
2019-05-18T23:51:11.950Z,28.32
2019-05-18T23:53:40.901Z,23.83
2019-05-18T23:56:09.714Z,25.88
2019-05-18T23:58:38.556Z,25.20
